Terminal Aerodrome Forecast
Issued by NWS

Home | Current Version | Previous Version | Text Only | Print | Product List | Glossary On
Versions: 1 2 3 4 5 6 7 8 9 10 11 12 13 14 15 16 17 18 19 20 21 22 23 24 25 26
000
FTUS41 KGYX 010937 AAD
TAFLEB
TAF AMD
KLEB 010937Z 0110/0206 00000KT P6SM FEW001 BKN090
      TEMPO 0110/0111 2SM BR BKN001
     FM011100 22003KT P6SM VCSH SCT050 BKN100
     FM011500 24012G18KT P6SM VCTS SCT050CB BKN100
     FM012100 27010KT P6SM SCT060
     FM020000 00000KT P6SM SCT060=

USA.gov is the U.S. government's official web portal to all federal, state and local government web resources and services.